createdAt,value
2019-04-11T00:00:41.950Z,3.07
2019-04-11T00:03:11.685Z,2.73
2019-04-11T00:05:41.354Z,2.83
2019-04-11T00:08:12.018Z,2.47
2019-04-11T00:10:41.896Z,2.80
2019-04-11T00:13:18.915Z,3.03
2019-04-11T00:15:42.869Z,2.87
2019-04-11T00:18:12.682Z,2.60
2019-04-11T00:20:42.443Z,2.70
2019-04-11T00:23:12.237Z,3.37
2019-04-11T00:25:42.080Z,2.93
2019-04-11T00:28:11.805Z,2.57
2019-04-11T00:30:42.198Z,2.90
2019-04-11T00:33:12.122Z,2.53
2019-04-11T00:35:41.984Z,2.40
2019-04-11T00:38:11.826Z,2.20
2019-04-11T00:40:41.676Z,2.17
2019-04-11T00:43:11.520Z,2.77
2019-04-11T00:45:41.405Z,2.23
2019-04-11T00:48:11.339Z,2.67
2019-04-11T00:50:41.237Z,2.77
2019-04-11T00:53:11.898Z,2.30
2019-04-11T00:55:42.182Z,2.43
2019-04-11T00:58:12.139Z,2.53
2019-04-11T01:00:42.979Z,2.40
2019-04-11T01:03:13.726Z,2.40
2019-04-11T01:05:43.585Z,2.33
2019-04-11T01:08:13.710Z,2.40
2019-04-11T01:10:43.634Z,2.60
2019-04-11T01:13:14.216Z,2.77
2019-04-11T01:15:50.650Z,2.10
2019-04-11T01:18:20.785Z,2.43
2019-04-11T01:20:51.477Z,2.63
2019-04-11T01:23:21.273Z,2.40
2019-04-11T01:25:55.313Z,1.90
2019-04-11T01:28:24.967Z,2.77
2019-04-11T01:31:06.674Z,2.00
2019-04-11T01:33:36.393Z,2.50
2019-04-11T01:36:07.036Z,2.17
2019-04-11T01:38:41.622Z,2.50
2019-04-11T01:41:12.133Z,1.97
2019-04-11T01:43:52.648Z,2.37
2019-04-11T01:46:14.049Z,2.17
2019-04-11T01:49:08.729Z,2.67
2019-04-11T01:51:38.402Z,2.50
2019-04-11T01:54:08.086Z,2.30
2019-04-11T01:56:37.741Z,2.63
2019-04-11T01:59:07.385Z,3.13
2019-04-11T02:01:44.996Z,3.40
2019-04-11T02:04:34.185Z,3.33
2019-04-11T02:07:04.588Z,3.90
2019-04-11T02:09:34.377Z,3.10
2019-04-11T02:12:04.082Z,2.83
2019-04-11T02:14:33.867Z,2.80
2019-04-11T02:17:03.618Z,2.90
2019-04-11T02:19:34.365Z,3.23
2019-04-11T02:22:18.314Z,3.30
2019-04-11T02:24:54.345Z,2.30
2019-04-11T02:27:27.714Z,3.00
2019-04-11T02:29:58.537Z,2.63
2019-04-11T02:32:29.288Z,2.93
2019-04-11T02:35:01.422Z,2.90
2019-04-11T02:37:31.687Z,3.67
2019-04-11T02:40:03.214Z,3.27
2019-04-11T02:42:34.900Z,3.50
2019-04-11T02:45:23.129Z,3.27
2019-04-11T02:47:39.505Z,3.43
2019-04-11T02:50:09.005Z,3.47
2019-04-11T02:52:40.134Z,3.10
2019-04-11T02:55:13.001Z,3.23
2019-04-11T02:57:43.080Z,2.97
2019-04-11T03:00:13.291Z,3.30
2019-04-11T03:02:44.478Z,3.10
2019-04-11T03:05:16.255Z,3.37
2019-04-11T03:07:47.620Z,3.87
2019-04-11T03:10:18.790Z,3.63
2019-04-11T03:12:48.997Z,3.57
2019-04-11T03:15:31.757Z,6.33
2019-04-11T03:17:54.889Z,5.37
2019-04-11T03:20:31.313Z,3.33
2019-04-11T03:22:58.215Z,3.87
2019-04-11T03:25:25.090Z,3.03
2019-04-11T03:27:56.929Z,2.87
2019-04-11T03:30:44.786Z,3.57
2019-04-11T03:33:55.164Z,2.90
2019-04-11T03:38:23.173Z,2.83
2019-04-11T03:40:50.484Z,3.30
2019-04-11T03:43:20.848Z,3.53
2019-04-11T03:46:01.829Z,3.23
2019-04-11T03:48:24.806Z,3.13
2019-04-11T03:50:40.341Z,3.27
2019-04-11T03:53:11.436Z,3.10
2019-04-11T03:55:43.345Z,3.17
2019-04-11T03:58:15.477Z,3.90
2019-04-11T04:00:46.518Z,3.90
2019-04-11T04:03:18.173Z,4.50
2019-04-11T04:05:48.697Z,4.30
2019-04-11T04:08:20.327Z,4.13
2019-04-11T04:11:08.661Z,4.37
2019-04-11T04:13:42.868Z,4.90
2019-04-11T04:16:26.081Z,3.87
2019-04-11T04:19:11.734Z,4.20
2019-04-11T04:21:53.246Z,4.03
2019-04-11T04:24:37.803Z,3.00
2019-04-11T04:27:07.685Z,3.40
2019-04-11T04:29:37.677Z,3.60
2019-04-11T04:32:08.475Z,3.90
2019-04-11T04:34:40.026Z,3.60
2019-04-11T04:37:29.589Z,3.17
2019-04-11T04:40:17.969Z,3.17
2019-04-11T04:42:37.075Z,2.90
2019-04-11T04:45:04.851Z,3.60
2019-04-11T04:47:42.253Z,3.13
2019-04-11T04:50:06.674Z,3.30
2019-04-11T04:52:38.020Z,3.40
2019-04-11T04:55:08.517Z,3.77
2019-04-11T04:57:38.390Z,3.93
2019-04-11T05:00:09.404Z,4.10
2019-04-11T05:02:39.810Z,3.43
2019-04-11T05:05:11.334Z,3.60
2019-04-11T05:07:44.098Z,3.33
2019-04-11T05:10:13.460Z,3.70
2019-04-11T05:12:43.909Z,2.80
2019-04-11T05:15:14.595Z,3.10
2019-04-11T05:17:46.066Z,3.53
2019-04-11T05:20:16.278Z,3.37
2019-04-11T05:22:47.170Z,3.07
2019-04-11T05:25:18.104Z,2.73
2019-04-11T05:27:47.944Z,2.53
2019-04-11T05:30:18.676Z,2.67
2019-04-11T05:32:49.337Z,2.97
2019-04-11T05:35:19.185Z,3.07
2019-04-11T05:37:48.928Z,2.90
2019-04-11T05:40:18.601Z,2.90
2019-04-11T05:42:53.422Z,2.70
2019-04-11T05:45:22.899Z,3.10
2019-04-11T05:47:54.702Z,3.20
2019-04-11T05:50:26.908Z,3.53
2019-04-11T05:53:01.257Z,3.67
2019-04-11T05:55:30.513Z,3.63
2019-04-11T05:58:00.885Z,3.40
2019-04-11T06:00:44.453Z,3.60
2019-04-11T06:03:15.299Z,3.33
2019-04-11T06:06:13.362Z,3.27
2019-04-11T06:08:44.179Z,4.23
2019-04-11T06:11:54.442Z,3.40
2019-04-11T06:14:33.109Z,3.27
2019-04-11T06:17:07.195Z,3.00
2019-04-11T06:19:55.682Z,3.40
2019-04-11T06:22:25.644Z,3.43
2019-04-11T06:25:13.988Z,3.40
2019-04-11T06:27:52.040Z,3.17
2019-04-11T06:30:40.146Z,2.90
2019-04-11T06:33:32.377Z,3.17
2019-04-11T06:36:21.088Z,3.00
2019-04-11T06:39:15.551Z,2.67
2019-04-11T06:42:07.481Z,3.00
2019-04-11T06:44:56.460Z,3.00
2019-04-11T06:47:40.992Z,3.17
2019-04-11T06:50:39.669Z,3.60
2019-04-11T06:53:11.424Z,3.30
2019-04-11T06:56:12.522Z,3.87
2019-04-11T06:58:46.199Z,3.00
2019-04-11T07:01:20.232Z,3.30
2019-04-11T07:03:53.337Z,3.50
2019-04-11T07:06:27.195Z,3.40
2019-04-11T07:09:14.603Z,3.80
2019-04-11T07:11:53.706Z,3.20
2019-04-11T07:14:37.630Z,2.90
2019-04-11T07:17:25.380Z,2.73
2019-04-11T07:20:13.017Z,3.10
2019-04-11T07:23:01.508Z,3.27
2019-04-11T07:25:50.221Z,3.00
2019-04-11T07:28:50.234Z,3.00
2019-04-11T07:31:38.033Z,2.90
2019-04-11T07:34:37.765Z,3.30
2019-04-11T07:37:26.008Z,3.17
2019-04-11T07:40:24.260Z,2.83
2019-04-11T07:43:13.164Z,3.33
2019-04-11T07:45:58.914Z,2.90
2019-04-11T07:48:31.580Z,2.83
2019-04-11T07:51:19.659Z,3.03
2019-04-11T07:53:50.443Z,2.70
2019-04-11T07:56:51.368Z,2.90
2019-04-11T07:59:29.500Z,3.20
2019-04-11T08:02:24.493Z,3.17
2019-04-11T08:05:21.967Z,2.90
2019-04-11T08:08:21.198Z,2.60
2019-04-11T08:11:10.041Z,2.50
2019-04-11T08:14:04.509Z,2.47
2019-04-11T08:16:53.285Z,2.37
2019-04-11T08:19:42.876Z,2.97
2019-04-11T08:22:21.115Z,2.80
2019-04-11T08:24:58.657Z,2.77
2019-04-11T08:27:58.273Z,3.30
2019-04-11T08:30:24.712Z,3.30
2019-04-11T08:32:56.408Z,3.00
2019-04-11T08:35:55.594Z,3.30
2019-04-11T08:38:30.333Z,3.77
2019-04-11T08:41:23.205Z,3.53
2019-04-11T08:43:53.192Z,3.17
2019-04-11T08:46:27.089Z,3.00
2019-04-11T08:51:35.793Z,2.70
2019-04-11T08:54:37.628Z,2.80
2019-04-11T08:57:07.725Z,3.00
2019-04-11T08:59:59.951Z,3.10
2019-04-11T09:02:41.081Z,2.90
2019-04-11T09:05:31.195Z,3.27
2019-04-11T09:08:24.703Z,2.80
2019-04-11T09:11:18.954Z,3.60
2019-04-11T09:14:24.214Z,2.83
2019-04-11T09:17:03.880Z,2.63
2019-04-11T09:19:51.479Z,2.90
2019-04-11T09:22:39.450Z,3.00
2019-04-11T09:25:28.998Z,2.77
2019-04-11T09:28:21.932Z,3.17
2019-04-11T09:31:19.526Z,3.37
2019-04-11T09:34:21.822Z,2.93
2019-04-11T09:37:20.446Z,2.77
2019-04-11T09:40:15.371Z,2.93
2019-04-11T09:42:51.381Z,2.27
2019-04-11T09:45:45.837Z,2.60
2019-04-11T09:48:34.659Z,2.60
2019-04-11T09:51:40.086Z,2.77
2019-04-11T09:54:36.471Z,2.60
2019-04-11T09:57:20.603Z,2.80
2019-04-11T10:00:12.389Z,2.67
2019-04-11T10:03:17.374Z,2.77
2019-04-11T10:06:15.869Z,2.57
2019-04-11T10:08:49.478Z,2.87
2019-04-11T10:11:37.923Z,2.30
2019-04-11T10:14:15.716Z,2.30
2019-04-11T10:17:02.820Z,2.50
2019-04-11T10:19:51.976Z,2.20
2019-04-11T10:22:49.478Z,2.60
2019-04-11T10:25:53.813Z,3.20
2019-04-11T10:28:51.736Z,2.40
2019-04-11T10:31:22.432Z,2.37
2019-04-11T10:34:19.985Z,3.00
2019-04-11T10:36:59.581Z,3.03
2019-04-11T10:39:54.006Z,2.80
2019-04-11T10:42:26.664Z,2.80
2019-04-11T10:45:24.954Z,2.43
2019-04-11T10:48:03.382Z,2.50
2019-04-11T10:50:50.918Z,3.10
2019-04-11T10:53:22.863Z,3.30
2019-04-11T10:56:11.441Z,3.03
2019-04-11T10:58:59.433Z,2.70
2019-04-11T11:01:47.005Z,2.60
2019-04-11T11:04:28.592Z,3.07
2019-04-11T11:07:02.355Z,3.67
2019-04-11T11:09:52.565Z,4.30
2019-04-11T11:12:30.100Z,2.93
2019-04-11T11:15:19.838Z,3.50
2019-04-11T11:18:42.899Z,3.67
2019-04-11T11:20:49.921Z,3.10
2019-04-11T11:23:32.989Z,3.37
2019-04-11T11:26:27.944Z,2.43
2019-04-11T11:29:17.505Z,3.47
2019-04-11T11:31:52.909Z,3.13
2019-04-11T11:34:41.574Z,2.70
2019-04-11T11:37:37.769Z,3.70
2019-04-11T11:40:45.308Z,3.40
2019-04-11T11:43:21.208Z,2.90
2019-04-11T11:46:14.073Z,3.30
2019-04-11T11:48:56.661Z,2.93
2019-04-11T11:51:44.269Z,2.63
2019-04-11T11:54:19.872Z,3.77
2019-04-11T11:56:50.629Z,3.10
2019-04-11T11:59:45.242Z,3.20
2019-04-11T12:02:23.074Z,2.90
2019-04-11T12:05:14.869Z,3.00
2019-04-11T12:07:56.084Z,3.40
2019-04-11T12:10:34.075Z,3.40
2019-04-11T12:13:19.231Z,2.97
2019-04-11T12:15:59.450Z,3.33
2019-04-11T12:18:50.307Z,3.27
2019-04-11T12:21:26.343Z,3.20
2019-04-11T12:24:17.437Z,3.37
2019-04-11T12:27:02.693Z,3.80
2019-04-11T12:29:48.943Z,3.90
2019-04-11T12:32:22.187Z,3.30
2019-04-11T12:35:09.445Z,3.40
2019-04-11T12:37:43.978Z,3.43
2019-04-11T12:40:32.661Z,3.13
2019-04-11T12:43:03.557Z,3.60
2019-04-11T12:45:54.894Z,2.90
2019-04-11T12:48:32.059Z,2.90
2019-04-11T12:51:26.724Z,2.83
2019-04-11T12:53:57.292Z,2.73
2019-04-11T12:56:41.725Z,2.27
2019-04-11T12:59:18.046Z,2.63
2019-04-11T13:02:15.842Z,2.73
2019-04-11T13:04:46.736Z,2.73
2019-04-11T13:07:35.318Z,3.13
2019-04-11T13:10:16.873Z,2.90
2019-04-11T13:13:20.563Z,2.70
2019-04-11T13:16:13.015Z,2.50
2019-04-11T13:19:04.349Z,2.27
2019-04-11T13:22:08.953Z,2.90
2019-04-11T13:25:12.933Z,2.40
2019-04-11T13:27:46.445Z,2.83
2019-04-11T13:30:33.774Z,2.93
2019-04-11T13:33:21.297Z,3.10
2019-04-11T13:36:15.701Z,2.70
2019-04-11T13:38:47.138Z,2.60
2019-04-11T13:41:34.618Z,2.80
2019-04-11T13:44:16.246Z,2.60
2019-04-11T13:47:03.440Z,2.63
2019-04-11T13:49:42.202Z,2.90
2019-04-11T13:52:30.873Z,2.70
2019-04-11T13:55:16.849Z,3.10
2019-04-11T13:58:08.469Z,3.10
2019-04-11T14:00:42.862Z,2.70
2019-04-11T14:03:43.769Z,2.80
2019-04-11T14:06:35.554Z,2.73
2019-04-11T14:09:33.509Z,2.40
2019-04-11T14:12:06.881Z,2.83
2019-04-11T14:14:54.054Z,3.57
2019-04-11T14:17:41.807Z,3.90
2019-04-11T14:20:32.285Z,3.53
2019-04-11T14:23:24.237Z,2.60
2019-04-11T14:26:15.681Z,3.30
2019-04-11T14:28:48.449Z,2.73
2019-04-11T14:31:50.815Z,2.03
2019-04-11T14:34:50.053Z,2.40
2019-04-11T14:37:25.758Z,2.30
2019-04-11T14:39:59.671Z,2.63
2019-04-11T14:42:54.080Z,2.40
2019-04-11T14:45:39.362Z,2.37
2019-04-11T14:48:40.687Z,2.17
2019-04-11T14:51:47.598Z,2.30
2019-04-11T14:54:20.094Z,3.30
2019-04-11T14:56:58.374Z,2.30
2019-04-11T14:59:38.541Z,3.30
2019-04-11T15:02:36.418Z,3.87
2019-04-11T15:05:23.293Z,3.00
2019-04-11T15:07:52.947Z,2.40
2019-04-11T15:10:59.941Z,2.43
2019-04-11T15:13:30.510Z,2.70
2019-04-11T15:16:22.042Z,2.43
2019-04-11T15:18:56.244Z,2.10
2019-04-11T15:21:57.245Z,2.07
2019-04-11T15:24:26.995Z,2.53
2019-04-11T15:27:18.530Z,2.63
2019-04-11T15:29:48.209Z,2.10
2019-04-11T15:32:33.020Z,2.20
2019-04-11T15:35:05.573Z,1.90
2019-04-11T15:38:00.171Z,1.97
2019-04-11T15:40:38.778Z,3.13
2019-04-11T15:43:41.918Z,2.37
2019-04-11T15:46:20.685Z,1.83
2019-04-11T15:49:19.895Z,2.20
2019-04-11T15:51:42.245Z,3.30
2019-04-11T15:54:30.823Z,2.23
2019-04-11T15:57:17.963Z,1.77
2019-04-11T16:00:04.049Z,1.93
2019-04-11T16:02:44.875Z,1.87
2019-04-11T16:05:32.267Z,2.00
2019-04-11T16:08:23.734Z,2.00
2019-04-11T16:11:12.994Z,2.50
2019-04-11T16:13:53.010Z,1.80
2019-04-11T16:16:28.546Z,1.60
2019-04-11T16:19:26.097Z,1.53
2019-04-11T16:22:13.315Z,1.70
2019-04-11T16:24:43.253Z,1.70
2019-04-11T16:27:32.033Z,1.80
2019-04-11T16:30:04.685Z,1.57
2019-04-11T16:32:35.835Z,1.60
2019-04-11T16:35:23.781Z,1.70
2019-04-11T16:38:00.382Z,1.57
2019-04-11T16:41:02.880Z,2.40
2019-04-11T16:43:32.571Z,1.60
2019-04-11T16:46:30.274Z,1.90
2019-04-11T16:48:59.966Z,1.77
2019-04-11T16:51:31.007Z,2.50
2019-04-11T16:54:01.074Z,2.20
2019-04-11T16:56:30.833Z,2.70
2019-04-11T16:59:00.569Z,2.50
2019-04-11T17:01:30.355Z,1.87
2019-04-11T17:04:00.105Z,3.27
2019-04-11T17:06:55.370Z,3.67
2019-04-11T17:09:36.367Z,2.60
2019-04-11T17:12:06.050Z,2.67
2019-04-11T17:14:35.709Z,2.30
2019-04-11T17:17:14.522Z,2.70
2019-04-11T17:19:36.894Z,2.30
2019-04-11T17:22:08.245Z,2.10
2019-04-11T17:24:38.185Z,2.00
2019-04-11T17:27:07.942Z,1.90
2019-04-11T17:29:37.669Z,1.53
2019-04-11T17:32:07.441Z,1.97
2019-04-11T17:34:37.157Z,1.90
2019-04-11T17:37:06.803Z,2.03
2019-04-11T17:39:36.881Z,1.77
2019-04-11T17:42:07.153Z,1.83
2019-04-11T17:44:36.849Z,1.87
2019-04-11T17:47:06.501Z,1.93
2019-04-11T17:49:36.197Z,2.10
2019-04-11T17:52:07.682Z,2.30
2019-04-11T17:54:37.452Z,2.33
2019-04-11T17:57:07.152Z,2.50
2019-04-11T17:59:36.830Z,2.37
2019-04-11T18:02:10.464Z,2.77
2019-04-11T18:04:44.040Z,2.00
2019-04-11T18:07:10.998Z,1.90
2019-04-11T18:09:40.754Z,1.70
2019-04-11T18:12:10.531Z,2.40
2019-04-11T18:14:40.193Z,2.33
2019-04-11T18:17:09.869Z,2.20
2019-04-11T18:19:39.641Z,2.20
2019-04-11T18:22:13.382Z,2.40
2019-04-11T18:24:40.868Z,2.70
2019-04-11T18:27:10.669Z,3.00
2019-04-11T18:29:40.342Z,3.17
2019-04-11T18:32:10.136Z,3.90
2019-04-11T18:34:39.826Z,3.13
2019-04-11T18:37:09.494Z,3.50
2019-04-11T18:39:39.162Z,3.10
2019-04-11T18:42:08.866Z,2.73
2019-04-11T18:44:38.625Z,3.17
2019-04-11T18:47:08.380Z,2.53
2019-04-11T18:49:38.123Z,2.90
2019-04-11T18:52:18.968Z,2.90
2019-04-11T18:54:39.246Z,2.73
2019-04-11T18:57:08.996Z,2.77
2019-04-11T18:59:38.634Z,2.67
2019-04-11T19:02:09.948Z,1.80
2019-04-11T19:04:42.261Z,1.83
2019-04-11T19:07:13.244Z,1.93
2019-04-11T19:09:43.950Z,1.73
2019-04-11T19:12:15.808Z,1.90
2019-04-11T19:14:46.037Z,2.00
2019-04-11T19:17:16.432Z,2.13
2019-04-11T19:19:48.658Z,2.60
2019-04-11T19:22:19.587Z,2.10
2019-04-11T19:24:48.823Z,2.80
2019-04-11T19:27:20.519Z,2.33
2019-04-11T19:29:49.892Z,3.50
2019-04-11T19:32:19.715Z,3.00
2019-04-11T19:34:49.487Z,2.60
2019-04-11T19:37:19.177Z,2.50
2019-04-11T19:39:49.007Z,2.37
2019-04-11T19:42:19.536Z,2.90
2019-04-11T19:44:50.285Z,2.43
2019-04-11T19:47:21.782Z,2.40
2019-04-11T19:49:51.697Z,2.57
2019-04-11T19:52:21.421Z,2.43
2019-04-11T19:54:51.090Z,2.90
2019-04-11T19:57:20.874Z,2.87
2019-04-11T19:59:50.631Z,2.47
2019-04-11T20:02:23.136Z,2.27
2019-04-11T20:04:51.761Z,2.60
2019-04-11T20:07:21.436Z,2.43
2019-04-11T20:09:51.105Z,2.30
2019-04-11T20:12:20.870Z,2.30
2019-04-11T20:14:50.576Z,2.10
2019-04-11T20:17:20.334Z,2.57
2019-04-11T20:20:00.642Z,1.90
2019-04-11T20:22:21.501Z,2.00
2019-04-11T20:24:51.179Z,2.13
2019-04-11T20:27:20.970Z,2.30
2019-04-11T20:29:52.134Z,2.07
2019-04-11T20:32:21.974Z,2.37
2019-04-11T20:34:51.730Z,2.50
2019-04-11T20:37:21.382Z,2.20
2019-04-11T20:39:51.030Z,2.13
2019-04-11T20:42:24.043Z,1.93
2019-04-11T20:44:52.087Z,1.90
2019-04-11T20:47:21.772Z,2.10
2019-04-11T20:49:51.450Z,2.30
2019-04-11T20:52:21.097Z,2.10
2019-04-11T20:54:50.805Z,1.93
2019-04-11T20:57:25.789Z,2.47
2019-04-11T20:59:51.945Z,2.43
2019-04-11T21:02:21.802Z,2.60
2019-04-11T21:04:51.472Z,2.57
2019-04-11T21:07:21.122Z,2.03
2019-04-11T21:09:50.792Z,2.93
2019-04-11T21:12:20.481Z,2.40
2019-04-11T21:14:50.154Z,2.40
2019-04-11T21:17:19.845Z,2.70
2019-04-11T21:19:50.985Z,2.77
2019-04-11T21:22:23.982Z,2.80
2019-04-11T21:24:52.221Z,2.67
2019-04-11T21:27:21.913Z,2.60
2019-04-11T21:29:51.625Z,3.00
2019-04-11T21:32:21.303Z,2.50
2019-04-11T21:34:51.002Z,3.03
2019-04-11T21:37:20.720Z,2.70
2019-04-11T21:39:50.405Z,3.43
2019-04-11T21:42:20.042Z,3.13
2019-04-11T21:44:49.729Z,3.00
2019-04-11T21:47:19.393Z,2.10
2019-04-11T21:49:49.070Z,2.67
2019-04-11T21:52:18.714Z,2.37
2019-04-11T21:54:48.412Z,2.87
2019-04-11T21:57:18.581Z,3.00
2019-04-11T21:59:51.225Z,2.50
2019-04-11T22:02:24.015Z,2.70
2019-04-11T22:04:51.951Z,2.90
2019-04-11T22:07:21.627Z,2.60
2019-04-11T22:09:51.270Z,2.70
2019-04-11T22:12:20.961Z,2.30
2019-04-11T22:14:50.608Z,2.50
2019-04-11T22:17:20.303Z,2.80
2019-04-11T22:19:49.994Z,2.97
2019-04-11T22:22:19.706Z,2.43
2019-04-11T22:24:49.353Z,3.03
2019-04-11T22:27:22.009Z,2.60
2019-04-11T22:29:50.514Z,2.50
2019-04-11T22:32:20.169Z,2.63
2019-04-11T22:34:49.869Z,3.27
2019-04-11T22:37:19.545Z,2.73
2019-04-11T22:39:49.300Z,2.67
2019-04-11T22:42:19.105Z,2.57
2019-04-11T22:44:48.773Z,3.23
2019-04-11T22:47:18.425Z,3.17
2019-04-11T22:49:48.102Z,3.00
2019-04-11T22:52:18.150Z,3.17
2019-04-11T22:54:47.809Z,2.73
2019-04-11T22:57:17.494Z,2.50
2019-04-11T22:59:47.223Z,3.07
2019-04-11T23:02:26.785Z,3.03
2019-04-11T23:04:56.453Z,2.90
2019-04-11T23:07:26.109Z,3.33
2019-04-11T23:09:55.861Z,2.63
2019-04-11T23:12:25.593Z,2.90
2019-04-11T23:14:55.261Z,2.53
2019-04-11T23:17:24.917Z,2.60
2019-04-11T23:19:54.605Z,2.83
2019-04-11T23:22:24.250Z,2.80
2019-04-11T23:24:53.919Z,3.23
2019-04-11T23:27:23.636Z,3.03
2019-04-11T23:29:53.397Z,2.73
2019-04-11T23:32:23.081Z,2.57
2019-04-11T23:34:53.366Z,2.70
2019-04-11T23:37:23.077Z,2.20
2019-04-11T23:39:52.762Z,2.90
2019-04-11T23:42:22.395Z,3.00
2019-04-11T23:44:52.182Z,3.07
2019-04-11T23:47:23.122Z,2.63
2019-04-11T23:49:55.821Z,2.70
2019-04-11T23:52:26.875Z,2.80
2019-04-11T23:54:58.307Z,2.70
2019-04-11T23:57:28.837Z,2.90
2019-04-11T23:59:59.820Z,2.47
